Latest Coastal Weather Observations for Hogan Island

IDT60701

Issued at 7:02 am EDT Tuesday 7 February 2023 (issued every 10 minutes, with the page automatically refreshed every 10 minutes)

About coastal observations | Map of coastal stations | Coastal observations for TAS | Marine services | Other Formats
Station Details ID: 200838 Name: HOGAN ISLAND Lat: -39.22 Lon: 146.98 Height: 116.0 m
Data from the previous 72 hours. | See also: Recent months at Hogan Island
Date/Time
EDT
Wind Sea
Height
m
Swell Vis
km
Cloud Weather Temp
°C
Press
MSL
hPa
Rain since
9am
mm
Dir  Spd
kts
Gust
kts
Height
m
Period
s
Dir
07/07:00am WSW 25 29 - - - - - - - 15.2 1016.8 0.0
07/06:30am WSW 24 28 - - - - - - - 15.1 1016.9 0.0
07/06:00am WSW 25 30 - - - - - - - 14.9 1016.7 0.0
07/05:30am WSW 25 30 - - - - - - - 15.1 1016.6 0.0
07/05:00am WSW 26 32 - - - - - - - 15.3 1016.3 0.0
07/04:30am WSW 29 33 - - - - - - - 15.1 1016.1 0.0
07/04:00am WSW 27 32 - - - - - - - 15.4 1016.2 0.0
07/03:30am WSW 24 27 - - - - - - - 15.5 1016.5 0.0
07/03:00am WSW 24 28 - - - - - - - 15.2 1016.8 0.0
07/02:30am WSW 27 32 - - - - - - - 15.4 1016.7 0.0
07/02:00am WSW 23 28 - - - - - - - 15.6 1017.0 0.0
07/01:30am WSW 26 30 - - - - - - - 15.2 1017.1 0.0
07/01:00am WSW 26 30 - - - - - - - 15.4 1017.1 0.0
07/12:30am WSW 27 32 - - - - - - - 15.3 1017.4 0.0
07/12:00am WSW 27 31 - - - - - - - 15.3 1017.4 0.0
 
Date/Time
EDT
Wind Sea
Height
m
Swell Vis
km
Cloud Weather Temp
°C
Press
MSL
hPa
Rain since
9am
mm
Dir  Spd
kts
Gust
kts
Height
m
Period
s
Dir
06/11:30pm WSW 27 30 - - - - - - - 15.3 1017.3 0.0
06/11:00pm WSW 27 31 - - - - - - - 15.3 1017.5 0.0
06/10:30pm WSW 27 32 - - - - - - - 15.3 1017.7 0.0
06/10:00pm WSW 27 32 - - - - - - - 15.4 1017.7 0.0
06/09:30pm WSW 27 32 - - - - - - - 15.5 1017.5 0.0
06/09:00pm WSW 29 33 - - - - - - - 15.7 1017.2 0.0
06/08:30pm WSW 28 33 - - - - - - - 15.8 1017.0 0.0
06/08:00pm WSW 30 33 - - - - - - - 16.1 1016.8 0.0
06/07:30pm WSW 29 33 - - - - - - - 16.4 1016.7 0.0
06/07:00pm WSW 28 33 - - - - - - - 17.5 1016.6 0.0
06/06:30pm WSW 28 32 - - - - - - - 17.4 1016.5 0.0
06/06:00pm WSW 28 32 - - - - - - - 17.3 1016.6 0.0
06/05:30pm WSW 29 33 - - - - - - - 18.0 1016.8 0.0
06/05:00pm WSW 26 29 - - - - - - - 17.1 1016.9 0.0
06/04:30pm W 28 32 - - - - - - - 17.7 1017.1 0.0
06/04:00pm W 28 32 - - - - - - - 18.4 1017.4 0.0
06/03:30pm W 28 32 - - - - - - - 18.7 1017.4 0.0
06/03:00pm W 28 33 - - - - - - - 19.0 1017.5 0.0
06/02:30pm WSW 26 31 - - - - - - - 18.7 1017.9 0.0
06/02:00pm W 26 29 - - - - - - - 18.1 1017.9 0.0
06/01:30pm WSW 27 32 - - - - - - - 17.3 1017.9 0.0
06/01:00pm W 25 30 - - - - - - - 18.8 1018.0 0.0
06/12:30pm W 25 28 - - - - - - - 18.6 1018.0 0.0
06/12:00pm W 26 31 - - - - - - - 17.9 1018.2 0.0
06/11:30am W 26 30 - - - - - - - 17.7 1018.2 0.0
06/11:00am W 26 31 - - - - - - - 16.8 1018.1 0.0
06/10:30am W 25 30 - - - - - - - 16.9 1018.0 0.0
06/10:00am W 25 30 - - - - - - - 17.1 1018.1 0.0
06/09:30am W 25 29 - - - - - - - 16.4 1018.0 0.0
06/09:00am WSW 25 29 - - - - - - - 16.1 1017.9 0.0
06/08:30am W 23 28 - - - - - - - 15.9 1017.7 0.0
06/08:00am W 24 28 - - - - - - - 15.5 1017.7 0.0
06/07:30am W 25 28 - - - - - - - 15.5 1017.2 0.0
06/07:00am WSW 24 30 - - - - - - - 15.4 1016.9 0.0
06/06:30am WSW 25 29 - - - - - - - 15.2 1016.7 0.0
06/06:00am WSW 24 28 - - - - - - - 15.0 1016.4 0.0
06/05:30am W 23 28 - - - - - - - 15.2 1016.0 0.0
06/05:00am W 25 30 - - - - - - - 15.3 1015.9 0.0
06/04:30am WSW 23 27 - - - - - - - 15.2 1015.7 0.0
06/04:00am W 22 28 - - - - - - - 15.2 1015.6 0.0
06/03:30am W 20 27 - - - - - - - 14.8 1015.7 0.0
06/03:00am W 20 25 - - - - - - - 14.5 1015.7 0.0
06/02:30am WSW 20 27 - - - - - - - 14.9 1015.6 0.0
06/02:27am W 18 23 - - - - - - - 14.8 1015.7 0.0
06/02:00am W 19 22 - - - - - - - 14.6 1015.8 0.0
06/01:30am W 21 25 - - - - - - - 14.4 1016.0 0.0
06/01:00am W 25 30 - - - - - - - 14.5 1016.2 0.0
06/12:30am W 22 28 - - - - - - - 15.0 1016.1 0.0
06/12:00am W 21 25 - - - - - - - 15.4 1016.2 0.0
 
Date/Time
EDT
Wind Sea
Height
m
Swell Vis
km
Cloud Weather Temp
°C
Press
MSL
hPa
Rain since
9am
mm
Dir  Spd
kts
Gust
kts
Height
m
Period
s
Dir
05/11:30pm W 24 28 - - - - - - - 15.1 1016.2 0.0
05/11:00pm WSW 24 27 - - - - - - - 15.6 1016.3 0.0
05/10:30pm W 22 26 - - - - - - - 15.4 1016.4 0.0
05/10:00pm W 25 30 - - - - - - - 15.6 1016.3 0.0
05/09:30pm W 26 30 - - - - - - - 15.9 1016.0 0.0
05/09:00pm W 26 30 - - - - - - - 15.9 1015.8 0.0
05/08:30pm W 26 30 - - - - - - - 15.6 1015.7 0.0
05/08:00pm W 25 31 - - - - - - - 16.0 1015.5 0.0
05/07:30pm W 25 31 - - - - - - - 16.2 1015.3 0.0
05/07:00pm W 27 32 - - - - - - - 17.0 1015.1 0.0
05/06:30pm W 24 29 - - - - - - - 16.8 1015.0 0.0
05/06:00pm W 27 31 - - - - - - - 17.8 1014.8 0.0
05/05:30pm W 29 32 - - - - - - - 17.1 1014.9 0.0
05/05:00pm W 27 31 - - - - - - - 18.3 1014.8 0.0
05/04:30pm W 28 32 - - - - - - - 18.2 1014.9 0.0
05/04:00pm W 29 33 - - - - - - - 17.6 1015.1 0.0
05/03:30pm WSW 29 32 - - - - - - - 18.2 1015.2 0.0
05/03:00pm W 27 31 - - - - - - - 19.1 1015.2 0.0
05/02:30pm WSW 28 31 - - - - - - - 18.6 1015.0 0.0
05/02:00pm W 27 30 - - - - - - - 18.3 1014.9 0.0
05/01:30pm W 27 31 - - - - - - - 18.4 1014.9 0.0
05/01:00pm W 25 30 - - - - - - - 18.7 1014.9 0.0
05/12:30pm WSW 27 31 - - - - - - - 19.1 1014.5 0.0
05/12:00pm WSW 28 33 - - - - - - - 18.5 1014.4 0.0
05/11:30am WSW 27 31 - - - - - - - 18.4 1014.5 0.0
05/11:00am WSW 27 31 - - - - - - - 18.1 1014.4 0.0
05/10:30am WSW 27 31 - - - - - - - 18.0 1014.2 0.0
05/10:00am W 29 33 - - - - - - - 17.2 1014.0 0.0
05/09:30am WSW 29 32 - - - - - - - 17.4 1013.9 0.0
05/09:00am WSW 29 33 - - - - - - - 16.2 1013.5 3.0
05/08:30am W 30 34 - - - - - - - 15.8 1013.1 3.0
05/08:00am WSW 31 35 - - - - - - - 15.9 1012.3 3.0
05/07:30am WSW 29 36 - - - - - - - 15.7 1012.3 3.0
05/07:00am WSW 32 37 - - - - - - - 15.6 1011.4 3.0
05/06:30am WSW 27 35 - - - - - - - 15.4 1011.0 3.0
05/06:00am WSW 30 35 - - - - - - - 15.5 1010.7 3.0
05/05:30am WSW 35 40 - - - - - - - 15.5 1009.9 3.0
05/05:00am WSW 35 41 - - - - - - - 15.4 1009.5 3.0
05/04:30am WSW 33 38 - - - - - - - 15.4 1009.5 3.0
05/04:00am WSW 38 42 - - - - - - - 15.5 1008.7 3.0
05/03:30am WSW 36 43 - - - - - - - 15.4 1008.5 3.0
05/03:00am W 37 44 - - - - - - - 15.4 1008.2 3.0
05/02:30am WSW 41 46 - - - - - - - 15.3 1008.0 3.0
05/02:00am WSW 38 44 - - - - - - - 15.4 1007.9 3.0
05/01:30am WSW 39 46 - - - - - - - 15.2 1008.0 3.0
05/01:00am WSW 40 48 - - - - - - - 15.2 1007.4 3.0
05/12:30am WSW 42 48 - - - - - - - 15.2 1007.2 3.0
05/12:00am WSW 43 51 - - - - - - - 15.3 1006.8 3.0
 
Date/Time
EDT
Wind Sea
Height
m
Swell Vis
km
Cloud Weather Temp
°C
Press
MSL
hPa
Rain since
9am
mm
Dir  Spd
kts
Gust
kts
Height
m
Period
s
Dir
04/11:30pm WSW 45 51 - - - - - - - 15.2 1006.6 3.0
04/11:00pm WSW 43 50 - - - - - - - 15.2 1006.6 3.0
04/10:30pm WSW 45 53 - - - - - - - 15.3 1006.6 3.0
04/10:00pm WSW 45 51 - - - - - - - 15.2 1006.2 3.0
04/09:30pm WSW 45 52 - - - - - - - 15.3 1005.6 3.0
04/09:00pm WSW 48 55 - - - - - - - 15.4 1005.1 3.0
04/08:30pm WSW 46 53 - - - - - - - 15.4 1004.8 3.0
04/08:01pm WSW 49 59 - - - - - - - 15.4 1004.1 3.0
04/08:00pm WSW 50 59 - - - - - - - 15.6 1004.1 3.0
04/07:30pm WSW 46 56 - - - - - - - 15.5 1003.6 3.0
04/07:25pm WSW 45 56 - - - - - - - 15.4 1003.4 3.0
04/07:00pm WSW 47 55 - - - - - - - 15.5 1003.1 3.0
04/06:30pm WSW 46 54 - - - - - - - 15.4 1002.4 3.0
04/06:00pm WSW 47 55 - - - - - - - 15.1 1002.0 3.0
04/05:46pm WSW 45 55 - - - - - - - 15.2 1002.0 3.0
04/05:30pm W 48 55 - - - - - - - 15.3 1001.5 3.0
04/05:00pm WSW 48 56 - - - - - - - 15.2 1001.1 3.0
04/04:30pm WSW 49 57 - - - - - - - 15.1 1000.7 3.0
04/04:00pm WSW 48 56 - - - - - - - 15.0 1000.1 3.0
04/03:46pm WSW 47 58 - - - - - - - 15.1 1000.0 3.0
04/03:30pm WSW 47 54 - - - - - - - 14.7 1000.1 3.0
04/03:11pm WSW 46 57 - - - - - - - 14.2 999.7 3.0
04/03:00pm WSW 47 53 - - - - - - - 14.7 999.9 3.0
04/02:30pm WSW 45 52 - - - - - - - 14.9 999.7 3.0
04/02:00pm WSW 43 51 - - - - - - - 14.9 999.4 3.0
04/01:31pm WSW 39 49 - - - - - - - 14.2 999.0 2.8
04/01:30pm WSW 38 46 - - - - - - - 14.6 999.2 2.8
04/01:00pm WSW 38 46 - - - - - - - 14.5 998.9 2.6
04/12:30pm WSW 33 39 - - - - - - - 14.8 999.2 2.6
04/12:00pm WSW 32 37 - - - - - - Recent precip. 14.8 999.2 2.6
04/11:30am WSW 32 37 - - - - - - - 14.1 998.9 2.4
04/11:00am WSW 34 39 - - - - - - - 13.9 998.8 2.0
04/10:30am WSW 30 36 - - - - - - - 14.6 998.5 1.4
04/10:06am WSW 25 35 - - - - - - - 14.2 998.3 1.2
04/10:00am W 26 32 - - - - - - - 14.3 998.4 1.2
04/09:53am W 23 32 - - - - - - - 13.9 998.3 1.0
04/09:30am WNW 26 30 - - - - - - - 13.4 998.2 0.8
04/09:00am NW 27 35 - - - - - - Recent precip. 12.9 997.8 8.0
04/08:30am WNW 28 39 - - - - - - - 12.7 997.9 8.0
04/08:13am WNW 31 42 - - - - - - - 12.6 997.4 7.8
04/08:00am WNW 31 37 - - - - - - - 12.9 997.5 7.2
04/07:30am WNW 29 35 - - - - - - - 13.4 997.4 6.6

Other formats

Comma delimited format used in spreadsheet applications
http://www.bom.gov.au/fwo/IDT60701/IDT60701.94949.axf

JavaScript Object Notation format (JSON) in row-major order
http://www.bom.gov.au/fwo/IDT60701/IDT60701.94949.json

Data quality

Most of these data are generated automatically and are frequently updated. Quality checks on data are not normally performed. It is possible for incorrect values to appear. Refer to information at About Latest Weather Observations and please check the disclaimer before using these data.